Time;durP1;ratioP1;P1;durP2;ratioP2;P2;SDS_P1;SDS_P2;PMS_P1;PMS_P2;Temp;Humidity;BMP_temperature;BMP_pressure;BME280_temperature;BME280_humidity;BME280_pressure;Samples;Min_cycle;Max_cycle;Signal;HPM_P1;HPM_P2
2022/10/31 00:01:55;;;;;;;6.35;1.67;;;;;;;9.99;74.88;100034.73;1761424;81;21200;-63
2022/10/31 00:04:26;;;;;;;7.53;1.40;;;;;;;9.97;74.99;100038.20;1747585;81;21101;-63
2022/10/31 00:06:57;;;;;;;6.28;1.50;;;;;;;9.96;75.06;100026.09;1744072;81;21117;-63
2022/10/31 00:09:27;;;;;;;3.92;1.17;;;;;;;9.94;75.12;100030.39;1734171;81;21133;-69
2022/10/31 00:11:58;;;;;;;6.28;1.42;;;;;;;9.93;75.24;100025.12;1676185;85;21593;-63
2022/10/31 00:14:27;;;;;;;5.05;1.57;;;;;;;9.90;75.42;100029.11;1667236;85;21565;-63
2022/10/31 00:16:57;;;;;;;5.40;1.55;;;;;;;9.87;75.62;100035.52;1669607;85;21118;-63
2022/10/31 00:19:28;;;;;;;5.85;1.40;;;;;;;9.87;75.77;100023.20;1674052;85;21562;-62
2022/10/31 00:21:58;;;;;;;6.97;1.27;;;;;;;9.85;75.83;100036.56;1670781;85;21659;-64
2022/10/31 00:24:27;;;;;;;6.47;1.40;;;;;;;9.83;75.91;100030.44;1687754;85;21217;-63
2022/10/31 00:26:56;;;;;;;4.12;1.10;;;;;;;9.81;76.11;100026.22;1674988;85;21137;-67
2022/10/31 00:29:27;;;;;;;6.83;1.60;;;;;;;9.79;76.32;100025.58;1701760;81;21091;-63
2022/10/31 00:31:57;;;;;;;5.03;1.70;;;;;;;9.74;76.52;100028.04;1753568;81;21164;-63
2022/10/31 00:34:29;;;;;;;6.12;2.05;;;;;;;9.72;76.64;100032.34;1746385;81;21111;-62
2022/10/31 00:37:01;;;;;;;5.92;1.87;;;;;;;9.70;76.74;100034.44;1763046;81;21157;-65
2022/10/31 00:39:31;;;;;;;4.87;1.45;;;;;;;9.70;76.84;100031.70;1745207;81;21178;-64
2022/10/31 00:41:59;;;;;;;5.58;1.20;;;;;;;9.67;77.01;100036.20;1752732;81;21161;-65
2022/10/31 00:44:29;;;;;;;5.17;1.30;;;;;;;9.65;77.16;100032.83;1761534;81;21121;-64
2022/10/31 00:46:58;;;;;;;6.37;1.40;;;;;;;9.66;77.34;100035.05;1747295;81;21102;-63
2022/10/31 00:49:27;;;;;;;6.80;1.92;;;;;;;9.65;77.44;100034.72;1758039;81;21153;-63
2022/10/31 00:51:57;;;;;;;4.58;1.32;;;;;;;9.62;77.55;100032.39;1732085;81;21146;-64
2022/10/31 00:54:27;;;;;;;5.47;1.37;;;;;;;9.60;77.68;100024.38;1712113;82;21201;-62
2022/10/31 00:56:57;;;;;;;5.40;1.30;;;;;;;9.59;77.71;100013.13;1721551;82;21134;-63
2022/10/31 00:59:27;;;;;;;4.80;1.17;;;;;;;9.59;77.81;100022.69;1705713;82;21183;-62
2022/10/31 01:01:56;;;;;;;4.22;1.57;;;;;;;9.57;77.99;100017.95;1733372;82;21174;-64
2022/10/31 01:04:27;;;;;;;5.90;1.60;;;;;;;9.55;78.13;100025.50;1742975;82;21213;-69
2022/10/31 01:06:57;;;;;;;6.62;1.32;;;;;;;9.54;78.21;100023.30;1698330;82;21162;-63
2022/10/31 01:09:28;;;;;;;5.35;0.98;;;;;;;9.53;78.32;100032.55;1721480;82;21146;-63
2022/10/31 01:11:57;;;;;;;2.90;1.07;;;;;;;9.50;78.44;100031.58;1733149;82;21153;-61
2022/10/31 01:14:26;;;;;;;5.05;1.50;;;;;;;9.49;78.57;100027.67;1733845;82;21205;-63
2022/10/31 01:16:58;;;;;;;6.03;1.40;;;;;;;9.49;78.69;100023.58;1746540;82;21115;-63
2022/10/31 01:19:27;;;;;;;6.70;1.72;;;;;;;9.45;78.82;100020.91;1732241;82;21229;-64
2022/10/31 01:21:59;;;;;;;4.10;1.40;;;;;;;9.42;78.92;100018.06;1722361;82;21165;-63
2022/10/31 01:24:31;;;;;;;6.60;1.45;;;;;;;9.42;79.04;100030.36;1741719;82;21154;-63
2022/10/31 01:27:02;;;;;;;7.33;1.70;;;;;;;9.41;79.08;100042.87;1717941;82;21594;-62
2022/10/31 01:29:33;;;;;;;6.12;1.80;;;;;;;9.43;79.19;100040.25;1728779;82;21162;-65
2022/10/31 01:32:04;;;;;;;5.28;1.60;;;;;;;9.41;79.30;100038.24;1725995;82;21573;-63
2022/10/31 01:34:34;;;;;;;6.78;1.55;;;;;;;9.40;79.34;100041.17;1722740;82;21178;-63
2022/10/31 01:37:03;;;;;;;7.35;1.30;;;;;;;9.42;79.37;100036.35;1746154;82;21126;-62
2022/10/31 01:39:33;;;;;;;3.95;1.25;;;;;;;9.44;79.36;100037.00;1732746;82;21542;-63
2022/10/31 01:42:04;;;;;;;4.42;1.32;;;;;;;9.45;79.38;100039.53;1710242;82;21130;-62
2022/10/31 01:44:39;;;;;;;4.08;1.20;;;;;;;9.47;79.33;100033.34;1733171;82;21581;-63
2022/10/31 01:47:12;;;;;;;4.70;1.20;;;;;;;9.46;79.33;100026.70;1721624;82;21582;-63
2022/10/31 01:49:48;;;;;;;6.87;1.32;;;;;;;9.43;79.33;100012.91;1710677;82;22161;-63
2022/10/31 01:52:43;;;;;;;3.33;1.10;;;;;;;9.38;79.38;100020.87;1724426;82;21546;-65
2022/10/31 01:55:22;;;;;;;6.03;1.30;;;;;;;9.37;79.45;100028.75;1740461;81;21094;-62
2022/10/31 01:57:55;;;;;;;4.67;1.30;;;;;;;9.35;79.44;100028.10;1745676;81;21089;-62
2022/10/31 02:00:24;;;;;;;3.87;1.55;;;;;;;9.34;79.50;100029.67;1771893;81;21621;-63
2022/10/31 02:02:55;;;;;;;5.00;1.37;;;;;;;9.33;79.55;100023.36;1748093;81;21094;-63
2022/10/31 02:05:28;;;;;;;3.83;1.62;;;;;;;9.33;79.52;100027.98;1771966;81;21070;-62
2022/10/31 02:08:09;;;;;;;4.40;1.20;;;;;;;9.36;79.47;100035.78;1765809;81;21173;-62
2022/10/31 02:10:39;;;;;;;5.10;1.50;;;;;;;9.37;79.40;100034.73;1761193;81;21090;-63
2022/10/31 02:13:12;;;;;;;5.17;1.30;;;;;;;9.39;79.28;100025.81;1758274;81;21157;-63
2022/10/31 02:15:52;;;;;;;5.03;1.30;;;;;;;9.37;79.21;100036.11;1760334;81;21118;-62
2022/10/31 02:18:22;;;;;;;5.97;1.20;;;;;;;9.36;79.16;100050.82;1770507;81;21193;-63
2022/10/31 02:21:32;;;;;;;6.05;1.30;;;;;;;9.34;79.15;100051.54;1736339;81;21837;-62
2022/10/31 02:24:20;;;;;;;6.20;1.82;;;;;;;9.31;79.18;100047.84;1753389;81;21130;-63
2022/10/31 02:27:03;;;;;;;4.53;1.50;;;;;;;9.28;79.24;100042.24;1767522;81;21090;-63
2022/10/31 02:29:56;;;;;;;7.03;1.80;;;;;;;9.24;79.37;100051.04;1757828;81;21118;-64
2022/10/31 02:32:51;;;;;;;7.75;2.00;;;;;;;9.24;79.55;100049.67;1712932;83;21198;-63
2022/10/31 02:35:41;;;;;;;3.90;1.32;;;;;;;9.24;79.44;100065.55;1761469;81;21153;-64
2022/10/31 02:38:48;;;;;;;5.47;1.37;;;;;;;9.23;79.44;100068.48;1746751;81;21090;-63
2022/10/31 02:41:34;;;;;;;6.30;1.10;;;;;;;9.20;79.50;100070.56;1704093;82;21571;-62
2022/10/31 02:44:11;;;;;;;4.28;1.40;;;;;;;9.19;79.57;100085.80;1750084;81;21126;-64
2022/10/31 02:47:01;;;;;;;7.35;1.70;;;;;;;9.17;79.65;100087.36;1764886;81;21090;-64
2022/10/31 02:49:59;;;;;;;6.25;1.40;;;;;;;9.18;79.58;100086.32;1757607;81;21114;-63
2022/10/31 02:52:32;;;;;;;5.45;1.20;;;;;;;9.18;79.51;100090.94;1749999;81;21118;-62
2022/10/31 02:55:28;;;;;;;3.70;1.42;;;;;;;9.14;79.53;100088.27;1757652;81;21129;-64
2022/10/31 02:58:10;;;;;;;3.58;1.15;;;;;;;9.13;79.66;100097.52;1758833;81;21122;-63
2022/10/31 03:01:04;;;;;;;6.10;1.32;;;;;;;9.12;79.66;100108.13;1764780;81;21154;-63
2022/10/31 03:03:54;;;;;;;5.00;1.27;;;;;;;9.11;79.66;100104.55;1767288;81;21513;-63
2022/10/31 03:06:32;;;;;;;3.83;1.00;;;;;;;9.13;79.56;100101.62;1755418;81;21093;-62
2022/10/31 03:09:48;;;;;;;5.35;1.60;;;;;;;9.15;79.50;100103.11;1749695;81;21577;-63
2022/10/31 03:12:42;;;;;;;4.30;1.65;;;;;;;9.18;79.41;100117.76;1751451;81;21138;-63
2022/10/31 03:15:36;;;;;;;5.20;1.60;;;;;;;9.19;79.31;100119.45;1734931;81;21174;-63
2022/10/31 03:18:37;;;;;;;4.28;1.50;;;;;;;9.21;79.12;100114.63;1757163;81;21130;-64
2022/10/31 03:21:14;;;;;;;7.15;1.70;;;;;;;9.20;78.91;100113.45;1769301;81;21095;-62
2022/10/31 03:23:44;;;;;;;5.55;1.95;;;;;;;9.20;78.82;100126.61;1764761;81;21621;-62
2022/10/31 03:26:16;;;;;;;5.08;1.30;;;;;;;9.21;78.73;100128.30;1758359;81;21561;-63
2022/10/31 03:28:50;;;;;;;5.25;1.27;;;;;;;9.25;78.68;100144.31;1757032;81;21085;-64
2022/10/31 03:31:23;;;;;;;5.20;1.40;;;;;;;9.27;78.53;100153.16;1763061;81;21142;-62
2022/10/31 03:33:52;;;;;;;6.22;1.30;;;;;;;9.28;78.29;100147.50;1763101;81;21144;-65
2022/10/31 03:36:21;;;;;;;6.20;1.57;;;;;;;9.33;78.11;100146.91;1760528;81;21142;-62
2022/10/31 03:38:50;;;;;;;3.30;1.10;;;;;;;9.34;77.73;100153.55;1760932;81;21557;-61
2022/10/31 03:41:22;;;;;;;7.75;1.30;;;;;;;9.36;77.50;100154.20;1769885;81;22238;-61
2022/10/31 03:44:06;;;;;;;4.83;0.90;;;;;;;9.38;77.26;100159.47;1732330;82;21141;-62
2022/10/31 03:46:36;;;;;;;2.00;0.80;;;;;;;9.39;76.04;100158.43;1754250;81;21511;-62
2022/10/31 03:49:06;;;;;;;1.77;0.50;;;;;;;9.38;73.41;100165.78;1771397;81;21130;-62
2022/10/31 03:52:00;;;;;;;1.85;0.60;;;;;;;9.37;69.73;100166.83;1768231;81;21093;-63
2022/10/31 03:54:46;;;;;;;4.03;0.60;;;;;;;9.36;66.96;100170.61;1758584;81;21134;-63
2022/10/31 03:57:30;;;;;;;2.72;0.40;;;;;;;9.34;65.07;100182.78;1770070;81;21091;-63
2022/10/31 04:00:11;;;;;;;3.08;0.60;;;;;;;9.29;62.31;100191.56;1762347;81;21065;-63
2022/10/31 04:03:13;;;;;;;5.15;0.53;;;;;;;9.23;61.59;100189.61;1762506;81;21097;-63
2022/10/31 04:05:43;;;;;;;2.98;0.60;;;;;;;9.17;60.72;100202.17;1766391;81;21150;-63
2022/10/31 04:08:17;;;;;;;2.70;0.60;;;;;;;9.10;59.69;100199.87;1765498;81;21542;-65
2022/10/31 04:10:48;;;;;;;1.07;0.50;;;;;;;9.04;59.05;100200.62;1751282;81;21532;-63
2022/10/31 04:13:28;;;;;;;2.12;0.60;;;;;;;9.01;59.45;100206.47;1763852;81;21109;-69
2022/10/31 04:15:59;;;;;;;1.47;0.50;;;;;;;9.00;59.50;100206.66;1746569;81;21094;-61
2022/10/31 04:18:30;;;;;;;4.00;0.50;;;;;;;8.97;59.64;100216.61;1754789;81;21097;-63
2022/10/31 04:21:03;;;;;;;3.65;0.53;;;;;;;8.94;59.59;100214.27;1753723;81;21101;-62
2022/10/31 04:23:34;;;;;;;3.35;0.50;;;;;;;8.91;59.89;100223.69;1687122;84;21105;-61
2022/10/31 04:26:05;;;;;;;2.22;0.60;;;;;;;8.89;59.69;100215.69;1670760;84;21152;-62
2022/10/31 04:28:35;;;;;;;2.00;0.60;;;;;;;8.86;59.86;100226.15;1688340;84;21146;-62
2022/10/31 04:31:05;;;;;;;0.65;0.33;;;;;;;8.84;59.98;100226.34;1677465;85;21179;-62
2022/10/31 04:33:35;;;;;;;1.67;0.60;;;;;;;8.84;59.90;100224.13;1681759;84;21157;-62
2022/10/31 04:36:05;;;;;;;1.00;0.42;;;;;;;8.82;59.86;100234.40;1693010;83;21614;-63
2022/10/31 04:38:35;;;;;;;1.82;0.50;;;;;;;8.78;59.90;100229.84;1666561;85;21186;-62
2022/10/31 04:41:06;;;;;;;2.05;0.57;;;;;;;8.77;60.03;100231.39;1692533;84;22389;-63
2022/10/31 04:43:53;;;;;;;1.40;0.60;;;;;;;8.76;60.02;100236.53;1623813;87;21665;-64
2022/10/31 04:46:22;;;;;;;1.92;0.60;;;;;;;8.71;59.81;100236.25;1642862;85;21143;-63
2022/10/31 04:48:52;;;;;;;1.60;0.75;;;;;;;8.65;59.77;100249.30;1681206;84;21187;-62
2022/10/31 04:51:20;;;;;;;2.45;0.53;;;;;;;8.62;59.59;100242.84;1694457;84;21169;-62
2022/10/31 04:53:51;;;;;;;0.90;0.50;;;;;;;8.58;59.04;100260.13;1704443;83;21214;-64
2022/10/31 04:56:29;;;;;;;4.42;0.80;;;;;;;8.53;59.11;100252.50;1663142;86;21165;-69
2022/10/31 04:59:00;;;;;;;2.67;0.62;;;;;;;8.51;58.94;100261.39;1682464;83;21182;-64
2022/10/31 05:01:30;;;;;;;1.95;0.60;;;;;;;8.48;59.09;100265.87;1706407;83;21226;-63
2022/10/31 05:04:02;;;;;;;2.27;0.55;;;;;;;8.46;59.00;100265.21;1700462;83;21657;-64
2022/10/31 05:06:32;;;;;;;2.77;0.60;;;;;;;8.44;58.71;100281.42;1723682;81;21113;-64
2022/10/31 05:09:01;;;;;;;3.98;0.60;;;;;;;8.42;58.32;100287.58;1746378;80;21137;-62
2022/10/31 05:11:32;;;;;;;1.00;0.50;;;;;;;8.38;58.05;100292.56;1744334;80;21077;-63
2022/10/31 05:14:04;;;;;;;2.92;0.90;;;;;;;8.36;57.85;100292.42;1745869;80;21066;-62
2022/10/31 05:16:53;;;;;;;5.03;0.60;;;;;;;8.32;57.74;100297.38;1770356;80;21183;-63
2022/10/31 05:19:40;;;;;;;1.47;0.60;;;;;;;8.30;57.90;100306.78;1765522;80;22073;-64
2022/10/31 05:22:13;;;;;;;1.77;0.55;;;;;;;8.26;57.95;100309.88;1759231;80;21133;-64
2022/10/31 05:24:44;;;;;;;2.55;0.53;;;;;;;8.25;57.88;100317.73;1778215;80;21103;-63
2022/10/31 05:27:15;;;;;;;1.65;0.55;;;;;;;8.24;57.71;100323.38;1771436;80;21197;-64
2022/10/31 05:29:44;;;;;;;1.62;0.50;;;;;;;8.21;57.50;100324.59;1760874;80;21105;-65
2022/10/31 05:32:13;;;;;;;2.22;0.50;;;;;;;8.18;57.07;100335.03;1766935;80;21177;-63
2022/10/31 05:35:00;;;;;;;2.05;0.50;;;;;;;8.15;56.98;100348.53;1766344;80;21206;-63
2022/10/31 05:37:48;;;;;;;1.82;0.60;;;;;;;8.12;57.06;100350.27;1717155;82;21511;-63
2022/10/31 05:40:18;;;;;;;4.12;0.60;;;;;;;8.12;56.82;100351.63;1737777;80;21173;-64
2022/10/31 05:42:49;;;;;;;2.47;0.60;;;;;;;8.12;56.83;100363.06;1766195;80;21168;-64
2022/10/31 05:45:19;;;;;;;0.60;0.40;;;;;;;8.10;56.69;100351.48;1755684;80;21111;-64
2022/10/31 05:47:54;;;;;;;1.98;0.60;;;;;;;8.10;56.81;100366.48;1756062;80;21140;-64
2022/10/31 05:50:26;;;;;;;1.77;0.72;;;;;;;8.09;56.71;100372.97;1768897;80;21107;-63
2022/10/31 05:53:00;;;;;;;5.45;0.70;;;;;;;8.07;56.83;100372.31;1764448;80;21201;-63
2022/10/31 05:55:31;;;;;;;4.30;0.70;;;;;;;8.04;56.86;100380.34;1744230;81;21110;-62
2022/10/31 05:58:02;;;;;;;4.10;0.50;;;;;;;7.99;57.14;100389.59;1756657;81;21149;-62
2022/10/31 06:00:37;;;;;;;7.12;3.05;;;;;;;7.99;57.08;100390.11;1761958;81;21153;-64
2022/10/31 06:03:09;;;;;;;3.05;1.00;;;;;;;7.97;56.96;100394.38;1760736;81;21146;-64
2022/10/31 06:05:41;;;;;;;3.10;0.90;;;;;;;7.98;57.09;100401.53;1747405;81;21130;-64
2022/10/31 06:08:11;;;;;;;2.55;0.82;;;;;;;7.98;57.05;100402.90;1691879;83;21122;-63
2022/10/31 06:10:41;;;;;;;1.72;0.60;;;;;;;7.97;56.88;100404.45;1753225;81;21105;-64
2022/10/31 06:13:11;;;;;;;1.82;0.70;;;;;;;7.95;56.40;100409.56;1749146;81;21094;-66
2022/10/31 06:15:43;;;;;;;1.80;0.50;;;;;;;7.97;56.39;100410.75;1752912;80;21129;-64
2022/10/31 06:18:15;;;;;;;1.27;0.50;;;;;;;7.99;56.03;100411.94;1759880;81;21296;-64
2022/10/31 06:20:53;;;;;;;6.37;1.30;;;;;;;7.98;55.64;100415.69;1718296;83;21166;-63
2022/10/31 06:23:23;;;;;;;2.50;0.70;;;;;;;7.98;55.54;100431.55;1751056;81;21023;-62
2022/10/31 06:25:56;;;;;;;1.12;0.57;;;;;;;7.98;55.08;100437.00;1762445;81;21106;-63
2022/10/31 06:28:25;;;;;;;2.52;0.70;;;;;;;7.96;54.56;100439.06;1736204;81;20979;-62
2022/10/31 06:30:57;;;;;;;2.33;0.60;;;;;;;7.94;53.35;100443.84;1750975;81;21007;-64
2022/10/31 06:33:27;;;;;;;0.70;0.45;;;;;;;7.93;53.54;100454.42;1766908;81;21481;-64
2022/10/31 06:36:01;;;;;;;3.72;1.45;;;;;;;7.94;53.30;100446.06;1778033;81;20999;-63
2022/10/31 06:38:31;;;;;;;2.98;0.85;;;;;;;7.97;52.65;100452.19;1763730;81;20991;-64
2022/10/31 06:41:05;;;;;;;1.00;0.60;;;;;;;7.95;51.96;100456.46;1765410;81;21018;-64
2022/10/31 06:43:40;;;;;;;3.17;1.00;;;;;;;7.95;52.12;100457.83;1738241;81;21074;-63
2022/10/31 06:46:10;;;;;;;3.62;1.00;;;;;;;7.98;51.77;100466.16;1759743;81;20990;-64
2022/10/31 06:48:59;;;;;;;4.00;0.98;;;;;;;7.99;51.37;100478.27;1763623;81;21003;-64
2022/10/31 06:51:29;;;;;;;6.40;1.45;;;;;;;7.99;50.15;100482.88;1764178;80;21118;-63
2022/10/31 06:53:58;;;;;;;4.90;1.10;;;;;;;7.99;49.59;100484.23;1743761;81;21447;-63
2022/10/31 06:56:27;;;;;;;4.97;1.32;;;;;;;7.99;48.87;100478.78;1753416;81;21715;-65
2022/10/31 06:58:57;;;;;;;5.03;0.98;;;;;;;8.00;48.98;100490.03;1753713;81;21490;-63
2022/10/31 07:01:31;;;;;;;2.70;1.00;;;;;;;8.01;47.49;100490.36;1747927;81;21019;-63
2022/10/31 07:04:04;;;;;;;2.92;0.90;;;;;;;8.00;46.27;100488.66;1763303;81;21041;-62
2022/10/31 07:06:35;;;;;;;4.55;0.80;;;;;;;7.99;46.54;100495.16;1731476;81;21477;-63
2022/10/31 07:09:04;;;;;;;3.50;0.60;;;;;;;7.98;46.13;100486.62;1756812;81;21015;-62
2022/10/31 07:11:34;;;;;;;1.87;0.72;;;;;;;7.95;46.14;100480.50;1764761;81;21011;-63
2022/10/31 07:14:05;;;;;;;1.20;0.60;;;;;;;7.94;46.02;100486.14;1767743;81;21420;-63
2022/10/31 07:16:35;;;;;;;2.27;0.70;;;;;;;7.93;46.33;100491.26;1721551;81;21018;-64
2022/10/31 07:19:06;;;;;;;1.47;0.60;;;;;;;7.93;46.01;100499.44;1752058;81;21022;-64
2022/10/31 07:21:36;;;;;;;2.47;0.62;;;;;;;7.93;46.63;100495.34;1755738;81;21014;-64
2022/10/31 07:24:06;;;;;;;1.82;0.62;;;;;;;7.93;47.20;100497.56;1754951;81;20994;-63
2022/10/31 07:26:47;;;;;;;2.12;0.75;;;;;;;7.94;47.56;100490.23;1761888;81;21017;-64
2022/10/31 07:29:16;;;;;;;2.80;0.90;;;;;;;8.01;47.96;100497.19;1762847;81;21416;-66
2022/10/31 07:31:46;;;;;;;7.03;0.80;;;;;;;8.28;48.11;100491.22;1759963;81;21034;-62
2022/10/31 07:34:17;;;;;;;2.12;0.62;;;;;;;8.75;48.06;100487.52;1759605;81;21035;-63
2022/10/31 07:36:58;;;;;;;2.08;0.70;;;;;;;9.33;47.19;100485.95;1742826;81;21029;-64
2022/10/31 07:39:28;;;;;;;4.87;1.20;;;;;;;9.88;46.19;100495.58;1760034;81;20985;-64
2022/10/31 07:41:59;;;;;;;3.35;0.90;;;;;;;10.36;45.34;100493.56;1744741;81;21464;-62
2022/10/31 07:44:28;;;;;;;1.77;0.75;;;;;;;10.82;44.08;100512.39;1757330;81;21021;-65
2022/10/31 07:47:15;;;;;;;1.00;0.53;;;;;;;11.16;42.93;100498.47;1765319;81;21003;-64
2022/10/31 07:49:46;;;;;;;2.22;0.60;;;;;;;11.46;42.36;100499.11;1748246;81;21026;-63
2022/10/31 07:52:28;;;;;;;1.40;0.50;;;;;;;11.75;42.12;100496.98;1761984;81;21459;-64
2022/10/31 07:55:16;;;;;;;2.12;0.70;;;;;;;12.05;41.60;100501.70;1746853;81;21501;-65
2022/10/31 07:57:49;;;;;;;2.35;0.78;;;;;;;12.27;40.46;100503.79;1740477;81;21471;-63
2022/10/31 08:00:20;;;;;;;4.55;0.50;;;;;;;12.38;40.29;100502.38;1719213;82;21181;-62
2022/10/31 08:03:06;;;;;;;2.50;0.60;;;;;;;12.41;39.13;100506.09;1758011;81;20991;-64
2022/10/31 08:05:57;;;;;;;2.35;0.60;;;;;;;12.29;39.63;100516.80;1748784;81;21519;-62
2022/10/31 08:08:41;;;;;;;0.70;0.40;;;;;;;12.17;40.16;100518.44;1707282;81;21076;-64
2022/10/31 08:11:09;;;;;;;2.83;0.78;;;;;;;12.12;40.56;100514.62;1742719;80;21083;-62
2022/10/31 08:13:40;;;;;;;3.55;1.40;;;;;;;12.12;40.64;100518.73;1741773;80;21552;-63
2022/10/31 08:16:10;;;;;;;4.25;0.80;;;;;;;12.10;40.28;100514.82;1737178;81;21069;-63
2022/10/31 08:18:42;;;;;;;1.60;0.50;;;;;;;11.91;40.14;100515.58;1756363;81;21498;-62
2022/10/31 08:21:12;;;;;;;4.58;1.82;;;;;;;11.72;40.49;100524.84;1753947;81;21127;-63
2022/10/31 08:23:44;;;;;;;1.98;0.75;;;;;;;11.60;40.81;100518.20;1753854;81;21391;-62
2022/10/31 08:26:14;;;;;;;6.37;1.30;;;;;;;11.48;41.21;100523.92;1756389;81;21011;-63
2022/10/31 08:28:44;;;;;;;1.95;1.00;;;;;;;11.37;41.66;100518.47;1766976;81;21043;-64
2022/10/31 08:31:16;;;;;;;2.62;0.70;;;;;;;11.34;41.65;100513.91;1765450;81;21051;-63
2022/10/31 08:33:45;;;;;;;3.37;0.90;;;;;;;11.22;41.55;100514.13;1766138;81;21039;-65
2022/10/31 08:36:22;;;;;;;1.87;0.65;;;;;;;11.11;41.00;100514.16;1745817;81;21459;-62
2022/10/31 08:38:51;;;;;;;1.85;0.70;;;;;;;10.99;41.20;100517.92;1746288;81;20990;-62
2022/10/31 08:41:24;;;;;;;1.02;0.60;;;;;;;10.94;40.58;100524.52;1743214;81;21073;-62
2022/10/31 08:43:53;;;;;;;2.25;0.60;;;;;;;10.85;39.89;100535.81;1770091;81;21036;-63
2022/10/31 08:46:26;;;;;;;1.55;0.60;;;;;;;10.66;39.09;100522.25;1752768;81;21038;-62
2022/10/31 08:48:55;;;;;;;0.50;0.30;;;;;;;10.51;39.36;100522.30;1747001;81;21022;-62
2022/10/31 08:51:25;;;;;;;3.62;0.70;;;;;;;10.38;38.97;100519.39;1744412;81;21423;-65
2022/10/31 08:53:55;;;;;;;4.67;0.70;;;;;;;10.28;39.49;100513.38;1756957;81;21304;-63
2022/10/31 08:56:37;;;;;;;3.85;0.95;;;;;;;10.21;39.77;100496.86;1732556;82;21011;-64
2022/10/31 08:59:09;;;;;;;7.67;2.33;;;;;;;10.14;40.29;100510.97;1742165;82;21112;-64
2022/10/31 09:01:40;;;;;;;6.33;1.40;;;;;;;10.09;40.19;100511.55;1725329;82;21062;-63
2022/10/31 09:04:10;;;;;;;2.42;0.60;;;;;;;10.07;40.46;100505.93;1742477;82;21466;-63
2022/10/31 09:06:40;;;;;;;1.27;0.72;;;;;;;10.09;40.60;100512.06;1737709;81;21077;-62
2022/10/31 09:09:14;;;;;;;2.83;0.78;;;;;;;10.07;40.27;100515.52;1722731;83;21058;-62
2022/10/31 09:11:43;;;;;;;2.02;0.70;;;;;;;10.05;39.96;100511.59;1712021;83;21070;-63
2022/10/31 09:14:11;;;;;;;3.47;1.02;;;;;;;10.00;40.23;100517.32;1699150;84;21373;-63
2022/10/31 09:16:41;;;;;;;1.85;0.62;;;;;;;9.99;40.18;100518.36;1709655;82;21062;-62
2022/10/31 09:19:13;;;;;;;5.30;0.90;;;;;;;9.97;39.86;100515.81;1696627;84;21491;-62
2022/10/31 09:21:46;;;;;;;2.90;0.90;;;;;;;9.98;39.22;100514.77;1726823;82;21455;-64
2022/10/31 09:24:15;;;;;;;3.27;0.80;;;;;;;10.03;39.30;100514.20;1714110;82;21118;-62
2022/10/31 09:26:45;;;;;;;1.85;0.85;;;;;;;10.08;39.33;100514.47;1729675;82;21047;-65
2022/10/31 09:29:17;;;;;;;2.33;0.60;;;;;;;10.09;38.91;100514.28;1731290;82;21080;-66
2022/10/31 09:31:46;;;;;;;3.00;0.78;;;;;;;10.08;38.84;100517.21;1733400;82;21035;-64
2022/10/31 09:34:17;;;;;;;1.92;0.60;;;;;;;10.09;38.05;100491.02;1734199;82;21451;-66
2022/10/31 09:36:50;;;;;;;1.17;0.40;;;;;;;10.06;38.49;100524.25;1695524;84;21031;-62
2022/10/31 09:39:20;;;;;;;1.98;0.47;;;;;;;10.07;38.29;100525.09;1726746;82;21024;-63
2022/10/31 09:41:59;;;;;;;1.40;0.75;;;;;;;10.08;38.41;100519.95;1721366;82;21031;-63
2022/10/31 09:44:55;;;;;;;4.85;1.07;;;;;;;10.05;38.24;100512.13;1725536;82;21019;-64
2022/10/31 09:48:09;;;;;;;4.67;1.25;;;;;;;10.05;38.29;100506.64;1714248;82;21047;-63
2022/10/31 09:50:51;;;;;;;;;;;;;;;10.05;38.57;100512.13;1697776;84;21019;-64
2022/10/31 09:53:41;;;;;;;2.33;0.68;;;;;;;10.13;38.86;100518.85;1691597;84;20194;-64
2022/10/31 09:56:20;;;;;;;1.62;0.47;;;;;;;10.16;37.63;100514.36;1751575;80;21822;-63
2022/10/31 09:58:57;;;;;;;4.67;0.70;;;;;;;10.07;37.33;100499.94;1741860;80;21035;-66
2022/10/31 10:01:53;;;;;;;2.35;0.60;;;;;;;10.04;37.60;100510.42;1759244;80;21062;-65
2022/10/31 10:04:58;;;;;;;1.95;0.53;;;;;;;10.07;37.60;100522.36;1783911;80;21109;-71
2022/10/31 10:07:50;;;;;;;1.15;0.72;;;;;;;10.09;37.06;100513.44;1765927;80;21090;-66
2022/10/31 10:11:16;;;;;;;2.47;0.42;;;;;;;10.07;36.96;100515.52;1768780;80;21506;-67
2022/10/31 10:14:33;;;;;;;2.87;0.80;;;;;;;10.07;36.88;100525.95;1725770;80;21038;-65
2022/10/31 10:17:20;;;;;;;1.45;0.80;;;;;;;10.10;37.17;100526.08;1760868;80;21057;-67
2022/10/31 10:20:26;;;;;;;4.53;1.00;;;;;;;10.12;36.89;100518.53;1786158;80;21062;-66
2022/10/31 10:23:29;;;;;;;3.98;0.90;;;;;;;10.14;36.63;100526.03;1729015;81;21035;-66
2022/10/31 10:26:14;;;;;;;1.90;0.50;;;;;;;10.17;36.23;100517.43;1754028;80;21054;-66
2022/10/31 10:29:02;;;;;;;2.00;0.60;;;;;;;10.20;36.26;100517.56;1756548;80;21011;-69
2022/10/31 10:31:41;;;;;;;1.82;0.75;;;;;;;10.23;35.92;100526.80;1762794;80;21024;-69
2022/10/31 10:34:36;;;;;;;5.42;1.92;;;;;;;10.21;35.81;100521.52;1775586;80;21035;-66
2022/10/31 10:37:23;;;;;;;2.45;0.57;;;;;;;10.21;35.90;100519.30;1766742;80;21451;-65
2022/10/31 10:39:56;;;;;;;4.80;0.50;;;;;;;10.21;35.79;100516.03;1765808;80;21077;-68
2022/10/31 10:48:29;;;;;;;6.20;1.70;;;;;;;10.23;35.48;100519.95;1743564;80;21042;-68
2022/10/31 10:50:59;;;;;;;1.40;0.62;;;;;;;10.25;35.49;100521.45;1763900;80;21034;-65
2022/10/31 10:54:00;;;;;;;1.72;0.45;;;;;;;10.28;35.59;100526.55;1762523;80;21042;-65
2022/10/31 10:56:25;;;;;;;2.58;1.50;;;;;;;10.30;35.55;100524.47;1773535;80;21043;-65
2022/10/31 10:58:54;;;;;;;2.22;0.70;;;;;;;10.34;35.54;100529.88;1758952;80;21093;-66
2022/10/31 11:01:24;;;;;;;4.00;1.10;;;;;;;10.36;35.82;100522.32;1747522;80;21003;-66
2022/10/31 11:03:54;;;;;;;1.85;0.70;;;;;;;10.38;35.38;100532.56;1750249;80;21050;-66
2022/10/31 11:06:26;;;;;;;0.98;0.50;;;;;;;10.40;35.40;100533.25;1766129;80;21008;-65
2022/10/31 11:08:56;;;;;;;3.37;0.70;;;;;;;10.41;35.48;100532.20;1744491;82;21075;-64
2022/10/31 11:11:33;;;;;;;5.20;0.50;;;;;;;10.42;35.16;100520.20;1696609;83;21049;-66
2022/10/31 11:14:11;;;;;;;0.82;0.33;;;;;;;10.43;34.89;100523.27;1705926;82;21477;-67
2022/10/31 11:16:44;;;;;;;3.55;0.47;;;;;;;10.43;34.56;100538.86;1664631;85;21057;-65
2022/10/31 11:19:21;;;;;;;2.08;0.40;;;;;;;10.42;34.69;100529.80;1688158;83;21481;-65
2022/10/31 11:21:50;;;;;;;2.27;0.78;;;;;;;10.42;34.15;100518.84;1760729;80;21054;-65
2022/10/31 11:24:27;;;;;;;1.32;0.30;;;;;;;10.42;34.38;100514.73;1781462;80;21023;-65
2022/10/31 11:27:20;;;;;;;2.90;0.55;;;;;;;10.46;34.60;100524.78;1786078;80;21022;-66
2022/10/31 11:29:50;;;;;;;2.75;0.30;;;;;;;10.46;34.34;100531.63;1745051;80;21600;-67
2022/10/31 11:32:24;;;;;;;3.92;0.60;;;;;;;10.45;33.68;100522.56;1777016;80;21038;-65
2022/10/31 11:34:56;;;;;;;2.95;0.60;;;;;;;10.41;33.95;100523.98;1788415;80;21011;-66
2022/10/31 11:37:34;;;;;;;1.92;0.60;;;;;;;10.41;33.79;100526.73;1772052;80;21419;-65
2022/10/31 11:40:09;;;;;;;2.90;0.55;;;;;;;10.43;34.17;100542.45;1756824;80;21057;-65
2022/10/31 11:42:42;;;;;;;4.40;0.50;;;;;;;10.43;33.69;100539.71;1760089;80;21026;-65
2022/10/31 11:45:25;;;;;;;4.85;1.10;;;;;;;10.43;33.69;100539.71;1778225;80;21695;-65
2022/10/31 11:47:55;;;;;;;1.40;0.75;;;;;;;10.46;34.95;100533.84;1769048;80;22088;-64
2022/10/31 11:50:32;;;;;;;2.95;0.70;;;;;;;10.50;34.36;100534.83;1758705;80;21003;-67
2022/10/31 11:53:03;;;;;;;1.80;0.70;;;;;;;10.53;34.05;100520.22;1770353;80;21014;-64
2022/10/31 11:55:37;;;;;;;5.10;0.68;;;;;;;10.56;33.36;100532.68;1763263;80;21090;-69
2022/10/31 11:58:25;;;;;;;2.17;0.50;;;;;;;10.56;33.66;100549.97;1776615;81;21035;-65
2022/10/31 12:00:55;;;;;;;0.40;0.35;;;;;;;10.57;33.51;100527.00;1774635;81;21104;-65
2022/10/31 12:03:46;;;;;;;1.20;0.62;;;;;;;10.56;33.44;100529.42;1733495;81;21062;-65
2022/10/31 12:06:29;;;;;;;1.55;0.53;;;;;;;10.56;33.57;100528.05;1753334;81;21015;-65
2022/10/31 12:08:58;;;;;;;1.55;0.60;;;;;;;10.58;33.31;100523.74;1753606;81;21035;-66
2022/10/31 12:12:20;;;;;;;2.42;0.60;;;;;;;10.58;33.39;100523.22;1757313;81;21026;-68
2022/10/31 12:15:03;;;;;;;1.05;0.55;;;;;;;10.61;33.17;100527.47;1747165;80;21084;-65
2022/10/31 12:18:06;;;;;;;1.67;0.70;;;;;;;10.61;33.25;100528.83;1764994;81;21058;-65
2022/10/31 12:20:49;;;;;;;2.67;0.70;;;;;;;10.65;33.47;100546.58;1761993;81;21415;-65